Time;durP1;ratioP1;P1;durP2;ratioP2;P2;SDS_P1;SDS_P2;PMS_P1;PMS_P2;Temp;Humidity;BMP_temperature;BMP_pressure;BME280_temperature;BME280_humidity;BME280_pressure;Samples;Min_cycle;Max_cycle;Signal;HPM_P1;HPM_P2
2023/03/21 00:01:52;;;;;;;20.48;9.45;;;;;;;;;;5060252;28;20060;-60
2023/03/21 00:04:17;;;;;;;23.70;9.77;;;;;;;;;;5068555;28;20082;-61
2023/03/21 00:06:43;;;;;;;16.60;8.75;;;;;;;;;;5059296;28;20028;-61
2023/03/21 00:09:08;;;;;;;19.05;9.13;;;;;;;;;;5070973;28;20036;-60
2023/03/21 00:11:34;;;;;;;17.27;7.95;;;;;;;;;;5068400;28;20086;-61
2023/03/21 00:14:01;;;;;;;19.45;9.30;;;;;;;;;;5055372;28;20033;-61
2023/03/21 00:16:29;;;;;;;22.48;9.32;;;;;;;;;;5058424;28;20115;-60
2023/03/21 00:18:56;;;;;;;18.52;8.63;;;;;;;;;;5061552;28;20082;-60
2023/03/21 00:21:27;;;;;;;16.10;8.30;;;;;;;;;;5066168;28;20033;-60
2023/03/21 00:23:52;;;;;;;;;;;;;;;;;;5070652;28;20108;-60
2023/03/21 00:26:18;;;;;;;19.17;8.10;;;;;;;;;;5069208;28;20003;-60
2023/03/21 00:28:43;;;;;;;18.92;8.13;;;;;;;;;;5052938;28;20093;-60
2023/03/21 00:31:09;;;;;;;15.60;7.93;;;;;;;;;;5067128;28;20082;-59
2023/03/21 00:33:36;;;;;;;16.25;7.32;;;;;;;;;;5068492;28;20123;-60
2023/03/21 00:36:01;;;;;;;19.80;6.75;;;;;;;;;;5060808;28;20041;-60
2023/03/21 00:38:26;;;;;;;17.33;6.78;;;;;;;;;;5069388;28;20035;-60
2023/03/21 00:40:52;;;;;;;17.27;7.50;;;;;;;;;;5057675;28;20025;-60
2023/03/21 00:43:22;;;;;;;13.75;6.55;;;;;;;;;;5054213;28;20036;-60
2023/03/21 00:45:48;;;;;;;22.52;7.75;;;;;;;;;;5053402;28;20120;-60
2023/03/21 00:48:13;;;;;;;13.13;5.95;;;;;;;;;;5068818;28;20036;-59
2023/03/21 00:50:39;;;;;;;15.73;6.65;;;;;;;;;;5066670;28;20071;-61
2023/03/21 00:53:05;;;;;;;17.30;6.45;;;;;;;;;;5067615;28;20477;-61
2023/03/21 00:55:31;;;;;;;15.57;7.07;;;;;;;;;;5071206;28;20032;-62
2023/03/21 00:57:57;;;;;;;14.68;6.65;;;;;;;;;;5062665;28;20491;-64
2023/03/21 01:00:22;;;;;;;14.60;6.68;;;;;;;;;;5061037;28;20435;-60
2023/03/21 01:02:57;;;;;;;18.25;7.53;;;;;;;;;;5055634;28;20174;-59
2023/03/21 01:08:12;;;;;;;14.23;6.50;;;;;;;;;;5065885;28;20035;-60
2023/03/21 01:10:43;;;;;;;15.35;6.35;;;;;;;;;;5065625;28;20025;-60
2023/03/21 01:13:10;;;;;;;;;;;;;;;;;;5061942;28;20051;-58
2023/03/21 01:15:36;;;;;;;13.93;5.90;;;;;;;;;;5067541;28;20384;-60
2023/03/21 01:18:02;;;;;;;15.25;5.97;;;;;;;;;;5059932;28;20035;-60
2023/03/21 01:20:28;;;;;;;17.83;6.20;;;;;;;;;;5067132;28;20032;-60
2023/03/21 01:22:53;;;;;;;14.45;6.07;;;;;;;;;;5071833;28;20476;-60
2023/03/21 01:25:19;;;;;;;16.63;5.85;;;;;;;;;;5070741;28;20048;-60
2023/03/21 01:27:45;;;;;;;13.43;5.80;;;;;;;;;;5051950;28;20400;-60
2023/03/21 01:30:11;;;;;;;12.40;5.95;;;;;;;;;;5057091;28;20478;-59
2023/03/21 01:32:36;;;;;;;13.10;5.55;;;;;;;;;;5057845;28;20036;-61
2023/03/21 01:35:02;;;;;;;13.85;5.13;;;;;;;;;;5056991;28;20025;-60
2023/03/21 01:37:28;;;;;;;15.93;5.72;;;;;;;;;;5052690;28;20029;-60
2023/03/21 01:39:53;;;;;;;14.63;5.25;;;;;;;;;;5052374;28;20044;-60
2023/03/21 01:42:19;;;;;;;14.18;5.63;;;;;;;;;;5060255;28;20044;-60
2023/03/21 01:44:51;;;;;;;12.18;5.07;;;;;;;;;;5072472;28;20461;-60
2023/03/21 01:47:16;;;;;;;17.83;5.97;;;;;;;;;;5067916;28;20477;-60
2023/03/21 01:49:46;;;;;;;15.70;5.55;;;;;;;;;;5064438;28;20044;-60
2023/03/21 01:52:16;;;;;;;13.98;6.07;;;;;;;;;;5053432;28;20025;-59
2023/03/21 01:54:42;;;;;;;15.00;5.85;;;;;;;;;;5052025;28;20123;-60
2023/03/21 01:57:20;;;;;;;17.10;6.10;;;;;;;;;;5050674;28;20032;-59
2023/03/21 01:59:49;;;;;;;15.70;5.47;;;;;;;;;;5052818;28;20039;-60
2023/03/21 02:02:28;;;;;;;12.57;5.85;;;;;;;;;;5051264;28;20443;-60
2023/03/21 02:04:57;;;;;;;17.02;6.20;;;;;;;;;;5067568;28;20057;-61
2023/03/21 02:07:28;;;;;;;19.13;7.35;;;;;;;;;;5069628;28;20097;-59
2023/03/21 02:09:54;;;;;;;;;;;;;;;;;;5067911;28;20028;-59
2023/03/21 02:12:19;;;;;;;15.30;6.68;;;;;;;;;;5071777;28;19923;-61
2023/03/21 02:14:48;;;;;;;19.50;8.02;;;;;;;;;;5068154;28;20040;-61
2023/03/21 02:17:26;;;;;;;20.42;7.95;;;;;;;;;;5058818;28;20111;-61
2023/03/21 02:20:12;;;;;;;20.15;7.95;;;;;;;;;;5058684;28;20374;-61
2023/03/21 02:22:38;;;;;;;14.73;6.78;;;;;;;;;;5060864;28;20130;-61
2023/03/21 02:25:21;;;;;;;18.08;7.70;;;;;;;;;;5069674;28;20067;-61
2023/03/21 02:27:54;;;;;;;17.63;7.10;;;;;;;;;;5051823;28;20397;-62
2023/03/21 02:30:31;;;;;;;17.50;7.30;;;;;;;;;;5060981;28;20465;-61
2023/03/21 02:33:09;;;;;;;22.38;8.40;;;;;;;;;;5053451;28;20130;-61
2023/03/21 02:35:37;;;;;;;18.95;7.47;;;;;;;;;;5059919;28;20067;-61
2023/03/21 02:38:19;;;;;;;17.17;6.95;;;;;;;;;;5051603;28;20033;-61
2023/03/21 02:40:55;;;;;;;16.63;7.32;;;;;;;;;;5057807;28;20039;-61
2023/03/21 02:43:36;;;;;;;17.55;7.68;;;;;;;;;;5062739;28;20036;-60
2023/03/21 02:46:20;;;;;;;18.63;7.95;;;;;;;;;;5058182;28;20029;-60
2023/03/21 02:49:11;;;;;;;18.88;7.63;;;;;;;;;;5071063;28;20139;-61
2023/03/21 02:51:40;;;;;;;19.40;7.82;;;;;;;;;;5052462;28;20036;-62
2023/03/21 02:54:12;;;;;;;16.42;7.63;;;;;;;;;;5066023;28;20081;-61
2023/03/21 02:56:39;;;;;;;21.13;8.23;;;;;;;;;;5059684;28;20036;-61
2023/03/21 02:59:05;;;;;;;17.40;7.55;;;;;;;;;;5052060;28;20044;-61
2023/03/21 03:01:31;;;;;;;19.02;8.05;;;;;;;;;;5055338;28;20064;-61
2023/03/21 03:03:56;;;;;;;16.60;7.55;;;;;;;;;;5057082;28;20523;-60
2023/03/21 03:06:35;;;;;;;16.58;7.38;;;;;;;;;;5053437;28;20045;-59
2023/03/21 03:09:19;;;;;;;14.02;7.75;;;;;;;;;;5071199;28;20066;-60
2023/03/21 03:11:46;;;;;;;19.15;7.75;;;;;;;;;;5062615;28;20115;-61
2023/03/21 03:14:22;;;;;;;18.33;7.82;;;;;;;;;;5051830;28;20033;-60
2023/03/21 03:17:16;;;;;;;22.45;9.98;;;;;;;;;;5054819;28;20047;-61
2023/03/21 03:20:18;;;;;;;17.60;8.68;;;;;;;;;;5060977;28;20036;-61
2023/03/21 03:23:22;;;;;;;20.08;8.73;;;;;;;;;;5056103;28;20049;-60
2023/03/21 03:25:55;;;;;;;16.65;8.45;;;;;;;;;;5055515;28;20041;-60
2023/03/21 03:28:26;;;;;;;17.75;8.98;;;;;;;;;;5051562;28;20556;-60
2023/03/21 03:30:53;;;;;;;24.90;9.65;;;;;;;;;;5060586;28;20492;-59
2023/03/21 03:33:22;;;;;;;20.83;8.75;;;;;;;;;;5070162;28;20393;-59
2023/03/21 03:35:49;;;;;;;19.77;9.02;;;;;;;;;;5069308;28;20119;-60
2023/03/21 03:38:17;;;;;;;19.25;9.40;;;;;;;;;;5062410;28;20033;-61
2023/03/21 03:40:50;;;;;;;18.52;9.32;;;;;;;;;;5063835;28;20050;-62
2023/03/21 03:43:21;;;;;;;21.80;8.82;;;;;;;;;;5050679;28;20048;-61
2023/03/21 03:45:52;;;;;;;19.65;8.93;;;;;;;;;;5050866;28;20037;-61
2023/03/21 03:48:45;;;;;;;18.95;8.63;;;;;;;;;;5051758;28;20124;-61
2023/03/21 03:51:19;;;;;;;18.25;8.73;;;;;;;;;;5050273;28;20186;-59
2023/03/21 03:53:51;;;;;;;19.33;8.80;;;;;;;;;;5050631;28;20036;-59
2023/03/21 03:56:17;;;;;;;21.92;9.07;;;;;;;;;;5065022;28;20047;-59
2023/03/21 03:58:42;;;;;;;18.27;9.35;;;;;;;;;;5062583;28;20036;-59
2023/03/21 04:01:08;;;;;;;19.50;9.25;;;;;;;;;;5050768;28;20041;-59
2023/03/21 04:03:36;;;;;;;19.23;8.98;;;;;;;;;;5053882;28;20024;-61
2023/03/21 04:06:02;;;;;;;22.85;9.82;;;;;;;;;;5070603;28;20557;-59
2023/03/21 04:08:29;;;;;;;19.13;8.82;;;;;;;;;;5062982;28;20034;-61
2023/03/21 04:10:54;;;;;;;19.92;9.13;;;;;;;;;;5067836;28;20036;-61
2023/03/21 04:13:20;;;;;;;25.02;10.50;;;;;;;;;;5068887;28;20036;-60
2023/03/21 04:15:45;;;;;;;18.45;9.10;;;;;;;;;;5069696;28;20028;-61
2023/03/21 04:18:11;;;;;;;18.35;8.98;;;;;;;;;;5056394;28;20526;-61
2023/03/21 04:20:36;;;;;;;23.10;9.13;;;;;;;;;;5050226;28;20078;-60
2023/03/21 04:23:02;;;;;;;16.98;9.13;;;;;;;;;;5056604;28;20592;-60
2023/03/21 04:25:28;;;;;;;20.75;8.93;;;;;;;;;;5066315;28;20741;-60
2023/03/21 04:27:54;;;;;;;25.02;10.00;;;;;;;;;;5053010;28;20028;-61
2023/03/21 04:30:20;;;;;;;17.58;8.63;;;;;;;;;;5065455;28;20033;-60
2023/03/21 04:32:52;;;;;;;21.92;9.15;;;;;;;;;;5067720;28;20037;-60
2023/03/21 04:35:19;;;;;;;19.73;9.65;;;;;;;;;;5053390;28;20033;-61
2023/03/21 04:37:45;;;;;;;21.45;9.48;;;;;;;;;;5060111;28;20051;-61
2023/03/21 04:40:11;;;;;;;20.95;8.82;;;;;;;;;;5050263;28;20041;-60
2023/03/21 04:42:36;;;;;;;22.00;8.50;;;;;;;;;;5062742;28;20358;-60
2023/03/21 04:45:02;;;;;;;19.02;8.85;;;;;;;;;;5053770;28;20031;-60
2023/03/21 04:47:28;;;;;;;18.05;8.30;;;;;;;;;;5069088;28;20445;-61
2023/03/21 04:49:53;;;;;;;17.83;7.88;;;;;;;;;;5065838;28;20560;-61
2023/03/21 04:52:19;;;;;;;25.88;8.52;;;;;;;;;;5051309;28;20128;-60
2023/03/21 04:54:45;;;;;;;20.52;8.20;;;;;;;;;;5049951;28;20142;-60
2023/03/21 04:57:11;;;;;;;19.00;8.32;;;;;;;;;;5068562;28;20036;-60
2023/03/21 04:59:36;;;;;;;16.85;8.10;;;;;;;;;;5069036;28;20029;-60
2023/03/21 05:02:02;;;;;;;20.25;8.60;;;;;;;;;;5056938;28;20203;-61
2023/03/21 05:04:27;;;;;;;18.95;10.38;;;;;;;;;;5059737;28;20031;-60
2023/03/21 05:06:54;;;;;;;19.27;8.82;;;;;;;;;;5054471;28;20354;-61
2023/03/21 05:09:23;;;;;;;22.60;8.98;;;;;;;;;;5061817;28;20041;-61
2023/03/21 05:11:49;;;;;;;18.38;8.02;;;;;;;;;;5049424;28;20044;-59
2023/03/21 05:14:18;;;;;;;17.02;8.23;;;;;;;;;;5067439;28;20025;-61
2023/03/21 05:16:51;;;;;;;17.83;8.02;;;;;;;;;;5068034;28;20040;-60
2023/03/21 05:19:19;;;;;;;14.55;7.32;;;;;;;;;;5065429;28;20041;-59
2023/03/21 05:21:45;;;;;;;15.25;8.25;;;;;;;;;;5052812;28;20041;-60
2023/03/21 05:24:14;;;;;;;17.90;8.27;;;;;;;;;;5066075;28;20036;-61
2023/03/21 05:26:42;;;;;;;18.73;8.43;;;;;;;;;;5052167;28;20033;-61
2023/03/21 05:29:07;;;;;;;19.30;8.88;;;;;;;;;;5051682;28;20088;-60
2023/03/21 05:31:33;;;;;;;16.48;8.15;;;;;;;;;;5073722;28;20033;-60
2023/03/21 05:33:59;;;;;;;17.15;7.95;;;;;;;;;;5067553;28;20060;-60
2023/03/21 05:36:24;;;;;;;17.77;7.88;;;;;;;;;;5062564;28;20056;-60
2023/03/21 05:38:50;;;;;;;16.17;8.05;;;;;;;;;;5070546;28;20032;-60
2023/03/21 05:41:17;;;;;;;19.80;7.93;;;;;;;;;;5071167;28;20033;-60
2023/03/21 05:43:42;;;;;;;15.85;7.82;;;;;;;;;;5072646;28;20063;-60
2023/03/21 05:46:08;;;;;;;20.70;8.60;;;;;;;;;;5068093;28;20524;-60
2023/03/21 05:48:34;;;;;;;19.13;7.93;;;;;;;;;;5074030;28;20071;-60
2023/03/21 05:51:01;;;;;;;16.52;8.25;;;;;;;;;;5063487;28;20081;-61
2023/03/21 05:53:26;;;;;;;16.73;7.53;;;;;;;;;;5062984;28;20037;-60
2023/03/21 05:55:52;;;;;;;17.33;7.88;;;;;;;;;;5060241;28;20303;-61
2023/03/21 05:58:17;;;;;;;15.55;7.78;;;;;;;;;;5058572;28;20477;-59
2023/03/21 06:00:42;;;;;;;18.95;7.90;;;;;;;;;;5053115;28;20374;-60
2023/03/21 06:03:08;;;;;;;17.13;7.75;;;;;;;;;;5070811;28;20166;-59
2023/03/21 06:05:33;;;;;;;16.60;8.20;;;;;;;;;;5068634;28;20397;-59
2023/03/21 06:07:59;;;;;;;21.95;8.48;;;;;;;;;;5085374;28;20044;-59
2023/03/21 06:10:24;;;;;;;18.63;8.13;;;;;;;;;;5053776;28;20488;-59
2023/03/21 06:12:50;;;;;;;18.55;8.50;;;;;;;;;;5053398;28;20032;-60
2023/03/21 06:15:15;;;;;;;16.42;8.55;;;;;;;;;;5067643;28;20043;-60
2023/03/21 06:17:41;;;;;;;18.25;8.30;;;;;;;;;;5071195;28;20412;-61
2023/03/21 06:20:07;;;;;;;21.73;8.73;;;;;;;;;;5052767;28;20108;-61
2023/03/21 06:22:34;;;;;;;19.25;8.73;;;;;;;;;;5053849;28;20029;-61
2023/03/21 06:24:59;;;;;;;18.50;8.93;;;;;;;;;;5072794;28;20060;-61
2023/03/21 06:27:25;;;;;;;18.98;8.65;;;;;;;;;;5073020;28;20444;-59
2023/03/21 06:29:50;;;;;;;20.88;9.63;;;;;;;;;;5072245;28;20036;-65
2023/03/21 06:32:16;;;;;;;26.42;9.93;;;;;;;;;;5068016;28;20029;-64
2023/03/21 06:34:41;;;;;;;19.40;9.23;;;;;;;;;;5073348;28;20047;-62
2023/03/21 06:37:07;;;;;;;20.75;9.90;;;;;;;;;;5073281;28;20060;-63
2023/03/21 06:39:32;;;;;;;22.30;10.10;;;;;;;;;;5072693;28;20461;-62
2023/03/21 06:41:58;;;;;;;22.63;9.90;;;;;;;;;;5067887;28;20421;-62
2023/03/21 06:44:24;;;;;;;26.02;10.43;;;;;;;;;;5061393;28;20033;-63
2023/03/21 06:46:50;;;;;;;24.00;10.68;;;;;;;;;;5068760;28;20028;-64
2023/03/21 06:49:16;;;;;;;26.35;11.48;;;;;;;;;;5070430;28;20074;-64
2023/03/21 06:51:41;;;;;;;24.50;11.15;;;;;;;;;;5071957;28;20033;-65
2023/03/21 06:54:07;;;;;;;25.88;10.88;;;;;;;;;;5072585;28;20031;-63
2023/03/21 06:56:32;;;;;;;21.38;10.52;;;;;;;;;;5071927;28;20036;-62
2023/03/21 06:58:58;;;;;;;25.45;10.65;;;;;;;;;;5068442;28;20025;-62
2023/03/21 07:01:26;;;;;;;22.45;10.77;;;;;;;;;;5072060;28;20457;-61
2023/03/21 07:03:52;;;;;;;23.83;11.40;;;;;;;;;;5070899;28;20028;-64
2023/03/21 07:06:18;;;;;;;28.00;11.93;;;;;;;;;;5070340;28;20040;-61
2023/03/21 07:08:43;;;;;;;25.85;12.02;;;;;;;;;;5071224;28;20028;-63
2023/03/21 07:11:09;;;;;;;27.45;11.88;;;;;;;;;;5060949;28;20101;-62
2023/03/21 07:13:35;;;;;;;27.60;11.23;;;;;;;;;;5070029;28;20025;-63
2023/03/21 07:16:00;;;;;;;24.17;11.73;;;;;;;;;;5059201;28;20109;-62
2023/03/21 07:18:26;;;;;;;30.63;11.50;;;;;;;;;;5071492;28;20112;-63
2023/03/21 07:20:52;;;;;;;25.45;12.13;;;;;;;;;;5070206;28;20028;-62
2023/03/21 07:23:18;;;;;;;28.52;11.77;;;;;;;;;;5055517;28;20367;-61
2023/03/21 07:25:45;;;;;;;25.13;11.35;;;;;;;;;;5066745;28;20047;-63
2023/03/21 07:28:11;;;;;;;23.73;10.23;;;;;;;;;;5055881;28;20047;-62
2023/03/21 07:30:36;;;;;;;20.15;9.45;;;;;;;;;;5055553;28;20028;-62
2023/03/21 07:33:02;;;;;;;21.80;9.18;;;;;;;;;;5066974;28;20036;-65
2023/03/21 07:35:27;;;;;;;16.52;9.63;;;;;;;;;;5062940;28;20117;-63
2023/03/21 07:37:53;;;;;;;21.10;8.98;;;;;;;;;;5069994;28;20468;-69
2023/03/21 07:40:19;;;;;;;22.92;8.70;;;;;;;;;;5053913;28;20078;-63
2023/03/21 07:42:44;;;;;;;19.42;9.35;;;;;;;;;;5070869;28;20036;-61
2023/03/21 07:45:13;;;;;;;21.23;9.05;;;;;;;;;;5071376;28;20093;-61
2023/03/21 07:47:39;;;;;;;19.38;9.25;;;;;;;;;;5071253;28;20060;-64
2023/03/21 07:50:05;;;;;;;21.73;9.57;;;;;;;;;;5071127;28;20102;-64
2023/03/21 07:52:31;;;;;;;21.95;10.07;;;;;;;;;;5061134;28;20032;-63
2023/03/21 07:54:56;;;;;;;19.60;9.07;;;;;;;;;;5051124;28;20033;-64
2023/03/21 07:57:22;;;;;;;23.55;9.40;;;;;;;;;;5067809;28;20043;-63
2023/03/21 07:59:47;;;;;;;21.15;9.50;;;;;;;;;;5056422;28;20596;-61
2023/03/21 08:02:15;;;;;;;17.50;8.98;;;;;;;;;;5070868;28;20040;-64
2023/03/21 08:04:40;;;;;;;19.17;8.60;;;;;;;;;;5070248;28;20107;-61
2023/03/21 08:07:05;;;;;;;26.65;8.88;;;;;;;;;;5069836;28;20040;-63
2023/03/21 08:09:31;;;;;;;19.10;8.50;;;;;;;;;;5071274;28;20047;-64
2023/03/21 08:11:56;;;;;;;21.83;7.47;;;;;;;;;;5067393;28;20457;-63
2023/03/21 08:14:22;;;;;;;19.92;7.95;;;;;;;;;;5065876;28;20037;-64
2023/03/21 08:16:47;;;;;;;15.95;6.70;;;;;;;;;;5071342;28;20488;-63
2023/03/21 08:19:13;;;;;;;18.55;7.43;;;;;;;;;;5068639;28;20379;-63
2023/03/21 08:21:38;;;;;;;15.85;7.60;;;;;;;;;;5069335;28;20461;-64
2023/03/21 08:24:05;;;;;;;15.88;6.82;;;;;;;;;;5070785;28;20029;-64
2023/03/21 08:26:32;;;;;;;14.30;6.80;;;;;;;;;;5063121;28;20117;-62
2023/03/21 08:28:58;;;;;;;14.13;7.38;;;;;;;;;;5057873;28;20029;-61
2023/03/21 08:31:23;;;;;;;17.50;6.68;;;;;;;;;;5064464;28;20036;-61
2023/03/21 08:33:53;;;;;;;14.25;6.47;;;;;;;;;;5071575;28;20025;-61
2023/03/21 08:36:20;;;;;;;12.52;5.28;;;;;;;;;;5069686;28;20064;-65
2023/03/21 08:38:47;;;;;;;10.68;5.70;;;;;;;;;;5071601;28;20029;-64
2023/03/21 08:41:13;;;;;;;13.10;6.40;;;;;;;;;;5068059;28;20082;-62
2023/03/21 08:43:39;;;;;;;14.15;6.30;;;;;;;;;;5067051;28;20039;-63
2023/03/21 08:46:04;;;;;;;14.60;6.53;;;;;;;;;;5062815;28;20029;-63
2023/03/21 08:48:30;;;;;;;13.15;6.43;;;;;;;;;;5055642;28;20397;-62
2023/03/21 08:50:55;;;;;;;13.45;6.60;;;;;;;;;;5060938;28;20033;-63
2023/03/21 08:53:20;;;;;;;13.85;6.43;;;;;;;;;;5070593;28;20111;-64
2023/03/21 08:55:48;;;;;;;16.58;8.07;;;;;;;;;;5069784;28;20033;-63
2023/03/21 08:58:13;;;;;;;14.15;6.35;;;;;;;;;;5070445;28;20043;-63
2023/03/21 09:00:39;;;;;;;16.90;7.15;;;;;;;;;;5062146;28;20037;-63
2023/03/21 09:03:04;;;;;;;17.55;6.75;;;;;;;;;;5059573;28;20031;-62
2023/03/21 09:05:29;;;;;;;17.38;7.65;;;;;;;;;;5064468;28;20477;-62
2023/03/21 09:07:55;;;;;;;14.32;6.38;;;;;;;;;;5073904;28;20044;-62
2023/03/21 09:10:21;;;;;;;19.45;6.28;;;;;;;;;;5073249;28;20380;-62
2023/03/21 09:12:49;;;;;;;16.60;6.07;;;;;;;;;;5074408;28;20036;-64
2023/03/21 09:15:14;;;;;;;12.93;6.00;;;;;;;;;;5073436;28;20060;-63
2023/03/21 09:17:42;;;;;;;14.13;6.20;;;;;;;;;;5072783;28;20067;-63
2023/03/21 09:20:17;;;;;;;16.27;5.80;;;;;;;;;;5071824;28;20082;-63
2023/03/21 09:22:50;;;;;;;11.73;6.10;;;;;;;;;;5079951;28;20079;-61
2023/03/21 09:25:18;;;;;;;15.98;6.20;;;;;;;;;;5074471;28;20933;-62
2023/03/21 09:27:44;;;;;;;14.40;6.00;;;;;;;;;;5074384;28;20047;-64
2023/03/21 09:30:12;;;;;;;13.13;5.70;;;;;;;;;;5071988;28;20036;-64
2023/03/21 09:32:37;;;;;;;13.07;6.03;;;;;;;;;;5073857;28;20028;-62
2023/03/21 09:35:04;;;;;;;13.90;6.82;;;;;;;;;;5060492;28;20082;-61
2023/03/21 09:37:31;;;;;;;14.13;6.40;;;;;;;;;;5076790;28;20115;-63
2023/03/21 09:39:57;;;;;;;19.17;6.32;;;;;;;;;;5074288;28;20115;-64
2023/03/21 09:42:34;;;;;;;18.50;6.28;;;;;;;;;;5077661;28;20510;-64
2023/03/21 09:45:15;;;;;;;15.93;5.93;;;;;;;;;;5072710;28;20123;-64
2023/03/21 09:47:52;;;;;;;11.48;5.97;;;;;;;;;;5074378;28;20043;-65
2023/03/21 09:50:30;;;;;;;12.23;5.68;;;;;;;;;;5070721;28;20033;-63
2023/03/21 09:53:04;;;;;;;11.68;5.93;;;;;;;;;;5074255;28;20112;-62
2023/03/21 09:55:33;;;;;;;16.70;6.75;;;;;;;;;;5055165;28;20036;-64
2023/03/21 09:57:59;;;;;;;12.52;7.38;;;;;;;;;;5068631;28;20032;-62
2023/03/21 10:00:33;;;;;;;13.48;7.28;;;;;;;;;;5069088;28;20625;-63
2023/03/21 10:03:01;;;;;;;14.70;7.25;;;;;;;;;;5059380;28;20037;-63
2023/03/21 10:05:31;;;;;;;17.83;7.82;;;;;;;;;;5066525;28;20083;-63
2023/03/21 10:08:03;;;;;;;19.77;9.00;;;;;;;;;;5067159;28;20032;-63
2023/03/21 10:10:34;;;;;;;16.77;8.23;;;;;;;;;;5056035;28;20045;-65
2023/03/21 10:13:00;;;;;;;16.80;8.05;;;;;;;;;;5068370;28;20024;-66
2023/03/21 10:15:26;;;;;;;16.30;8.15;;;;;;;;;;5072250;28;20476;-63
2023/03/21 10:17:58;;;;;;;18.90;9.38;;;;;;;;;;5074184;28;20051;-63
2023/03/21 10:20:41;;;;;;;16.23;8.13;;;;;;;;;;5055050;28;20068;-61
2023/03/21 10:23:13;;;;;;;14.60;7.60;;;;;;;;;;5069309;28;20043;-63
2023/03/21 10:25:45;;;;;;;17.45;8.32;;;;;;;;;;5058114;28;20029;-62
2023/03/21 10:28:21;;;;;;;13.63;7.10;;;;;;;;;;5070896;28;20033;-64
2023/03/21 10:31:03;;;;;;;16.52;7.35;;;;;;;;;;5069264;28;20036;-62
2023/03/21 10:33:49;;;;;;;17.88;7.65;;;;;;;;;;5059313;28;20086;-63
2023/03/21 10:36:19;;;;;;;16.20;6.93;;;;;;;;;;5052634;28;20397;-63
2023/03/21 10:38:48;;;;;;;14.05;6.60;;;;;;;;;;5063003;28;20029;-62
2023/03/21 10:41:14;;;;;;;16.40;7.55;;;;;;;;;;5056285;28;20465;-62
2023/03/21 10:43:41;;;;;;;14.30;6.40;;;;;;;;;;5072778;28;20112;-63
2023/03/21 10:46:19;;;;;;;13.45;6.25;;;;;;;;;;5066813;28;20139;-61
2023/03/21 10:48:51;;;;;;;12.82;6.07;;;;;;;;;;5067976;28;20024;-61
2023/03/21 10:51:20;;;;;;;14.48;5.78;;;;;;;;;;5052128;28;20033;-61
2023/03/21 10:54:04;;;;;;;12.32;5.50;;;;;;;;;;5066550;28;20063;-61
2023/03/21 10:56:35;;;;;;;11.48;5.53;;;;;;;;;;5053896;28;20055;-63
2023/03/21 10:59:02;;;;;;;11.82;4.63;;;;;;;;;;5068712;28;20029;-63
2023/03/21 11:01:35;;;;;;;9.63;4.90;;;;;;;;;;5072135;28;20048;-64
2023/03/21 11:04:12;;;;;;;9.05;4.95;;;;;;;;;;5068383;28;21554;-62
2023/03/21 11:06:40;;;;;;;8.85;4.30;;;;;;;;;;5072245;28;20056;-62
2023/03/21 11:09:15;;;;;;;9.27;4.93;;;;;;;;;;5070901;28;20036;-61
2023/03/21 11:11:51;;;;;;;13.65;5.50;;;;;;;;;;5070888;28;20036;-61
2023/03/21 11:14:44;;;;;;;14.10;5.53;;;;;;;;;;5063327;28;20455;-61
2023/03/21 11:17:15;;;;;;;12.52;5.68;;;;;;;;;;5061707;28;20059;-61
2023/03/21 11:19:47;;;;;;;16.55;5.57;;;;;;;;;;5071851;28;20028;-61
2023/03/21 11:22:14;;;;;;;11.98;5.10;;;;;;;;;;5071390;28;20116;-60
2023/03/21 11:24:43;;;;;;;12.40;5.75;;;;;;;;;;5070775;28;20480;-60
2023/03/21 11:27:08;;;;;;;13.90;5.88;;;;;;;;;;5070329;28;20029;-61
2023/03/21 11:29:44;;;;;;;12.52;5.53;;;;;;;;;;5070536;28;20032;-60
2023/03/21 11:32:21;;;;;;;10.25;4.38;;;;;;;;;;5070469;28;20500;-62
2023/03/21 11:34:48;;;;;;;11.45;4.68;;;;;;;;;;5072246;28;20070;-61
2023/03/21 11:37:38;;;;;;;12.85;4.53;;;;;;;;;;5069720;28;20036;-60
2023/03/21 11:40:19;;;;;;;11.48;5.45;;;;;;;;;;5072346;28;20059;-61
2023/03/21 11:43:03;;;;;;;12.07;5.25;;;;;;;;;;5070712;28;20041;-60
2023/03/21 11:45:34;;;;;;;11.05;5.22;;;;;;;;;;5071059;28;20043;-60
2023/03/21 11:48:02;;;;;;;10.80;5.30;;;;;;;;;;5071964;28;20025;-61
2023/03/21 11:50:40;;;;;;;12.68;5.07;;;;;;;;;;5070683;28;20023;-61
2023/03/21 11:53:35;;;;;;;10.55;4.82;;;;;;;;;;5070165;28;20032;-64
2023/03/21 11:56:19;;;;;;;9.85;4.90;;;;;;;;;;5070936;28;20060;-63
2023/03/21 11:59:10;;;;;;;11.48;4.68;;;;;;;;;;5070064;28;20035;-62
2023/03/21 12:01:52;;;;;;;11.10;4.63;;;;;;;;;;5061972;28;20064;-63
2023/03/21 12:04:40;;;;;;;11.00;4.60;;;;;;;;;;5068236;28;20037;-63
2023/03/21 12:07:35;;;;;;;10.20;4.55;;;;;;;;;;5052645;28;20040;-62
2023/03/21 12:10:10;;;;;;;12.02;4.43;;;;;;;;;;5051683;28;20055;-65
2023/03/21 12:12:44;;;;;;;8.68;4.70;;;;;;;;;;5055307;28;20036;-65
2023/03/21 12:15:24;;;;;;;14.40;4.18;;;;;;;;;;5066031;28;20036;-65
2023/03/21 12:18:05;;;;;;;10.00;4.13;;;;;;;;;;5067383;28;20028;-66
2023/03/21 12:20:50;;;;;;;10.73;3.53;;;;;;;;;;5051055;28;20265;-65
2023/03/21 12:23:22;;;;;;;11.00;4.13;;;;;;;;;;5052145;28;20025;-65
2023/03/21 12:25:58;;;;;;;11.23;3.47;;;;;;;;;;5051811;28;20530;-65
2023/03/21 12:28:46;;;;;;;9.57;3.75;;;;;;;;;;5058547;28;20073;-65
2023/03/21 12:31:18;;;;;;;10.57;4.18;;;;;;;;;;5069513;28;20101;-68
2023/03/21 12:33:58;;;;;;;6.95;2.95;;;;;;;;;;5062499;28;20397;-67
2023/03/21 12:36:43;;;;;;;9.40;3.40;;;;;;;;;;5070657;28;20037;-65
2023/03/21 12:39:18;;;;;;;9.55;3.47;;;;;;;;;;5070525;28;20086;-67
2023/03/21 12:41:51;;;;;;;8.98;3.65;;;;;;;;;;5067397;28;20052;-66
2023/03/21 12:44:21;;;;;;;7.75;3.03;;;;;;;;;;5071295;28;20039;-68
2023/03/21 12:47:01;;;;;;;7.65;3.15;;;;;;;;;;5066671;28;20033;-69
2023/03/21 12:49:49;;;;;;;7.82;2.92;;;;;;;;;;5072369;28;20049;-65
2023/03/21 12:52:36;;;;;;;5.65;2.60;;;;;;;;;;5062427;28;20043;-66
2023/03/21 12:55:25;;;;;;;6.07;2.90;;;;;;;;;;5055295;28;20094;-64
2023/03/21 12:58:17;;;;;;;5.20;2.58;;;;;;;;;;5059012;28;20465;-65
2023/03/21 13:00:45;;;;;;;6.47;2.55;;;;;;;;;;5074388;28;20063;-65
2023/03/21 13:03:23;;;;;;;5.57;2.53;;;;;;;;;;5071800;28;20043;-64
2023/03/21 13:06:01;;;;;;;8.25;2.95;;;;;;;;;;5055984;28;20045;-64
2023/03/21 13:08:38;;;;;;;5.88;2.80;;;;;;;;;;5059378;28;20039;-63
2023/03/21 13:11:05;;;;;;;6.15;2.70;;;;;;;;;;5067711;28;20071;-63
2023/03/21 13:13:36;;;;;;;6.72;2.55;;;;;;;;;;5073490;28;20055;-63
2023/03/21 13:16:26;;;;;;;5.20;2.60;;;;;;;;;;5073456;28;20060;-64
2023/03/21 13:19:15;;;;;;;3.58;2.03;;;;;;;;;;5073754;28;20040;-62
2023/03/21 13:22:01;;;;;;;5.03;2.70;;;;;;;;;;5069786;28;20041;-64
2023/03/21 13:24:48;;;;;;;6.80;2.88;;;;;;;;;;5071419;28;20051;-65
2023/03/21 13:27:36;;;;;;;10.50;3.17;;;;;;;;;;5053620;28;20033;-65
2023/03/21 13:30:13;;;;;;;7.57;2.72;;;;;;;;;;5072469;28;20032;-65
2023/03/21 13:32:44;;;;;;;9.18;3.45;;;;;;;;;;5073548;28;20044;-65
2023/03/21 13:35:32;;;;;;;6.72;2.83;;;;;;;;;;5073072;28;20028;-65
2023/03/21 13:38:02;;;;;;;5.85;2.70;;;;;;;;;;5073987;28;20122;-62
2023/03/21 13:40:36;;;;;;;13.05;3.42;;;;;;;;;;5064671;28;20126;-65
2023/03/21 13:43:02;;;;;;;6.80;2.97;;;;;;;;;;5071233;28;20107;-65
2023/03/21 13:45:43;;;;;;;8.38;3.05;;;;;;;;;;5064430;28;20094;-61
2023/03/21 13:48:38;;;;;;;;;;;;;;;;;;5089864;28;20032;-64
2023/03/21 13:51:05;;;;;;;4.60;2.80;;;;;;;;;;5034235;28;19913;-64
2023/03/21 13:53:44;;;;;;;6.70;3.20;;;;;;;;;;5072044;28;20575;-63
2023/03/21 13:56:15;;;;;;;6.30;3.05;;;;;;;;;;5072049;28;20477;-62
2023/03/21 13:58:43;;;;;;;6.95;3.00;;;;;;;;;;5074516;28;20054;-62
2023/03/21 14:01:29;;;;;;;6.93;3.30;;;;;;;;;;5072753;28;20058;-63
2023/03/21 14:03:59;;;;;;;7.25;2.83;;;;;;;;;;5062185;28;20039;-63
2023/03/21 14:06:34;;;;;;;7.23;3.13;;;;;;;;;;5073198;28;20044;-63
2023/03/21 14:09:00;;;;;;;6.88;2.85;;;;;;;;;;5067470;28;20484;-61
2023/03/21 14:11:27;;;;;;;4.40;2.55;;;;;;;;;;5060332;28;20085;-64
2023/03/21 14:13:53;;;;;;;5.95;3.00;;;;;;;;;;5073743;28;20059;-63
2023/03/21 14:16:21;;;;;;;6.57;2.85;;;;;;;;;;5069179;28;20126;-64
2023/03/21 14:18:55;;;;;;;8.10;2.88;;;;;;;;;;5061238;28;20128;-64
2023/03/21 14:21:25;;;;;;;4.68;2.40;;;;;;;;;;5068774;28;20115;-63
2023/03/21 14:23:56;;;;;;;6.68;2.90;;;;;;;;;;5065573;28;20034;-65
2023/03/21 14:26:24;;;;;;;6.50;2.75;;;;;;;;;;5072011;28;20082;-66
2023/03/21 14:28:50;;;;;;;5.53;2.75;;;;;;;;;;5073549;28;20476;-65
2023/03/21 14:31:18;;;;;;;7.25;3.00;;;;;;;;;;5071578;28;20078;-65
2023/03/21 14:33:59;;;;;;;5.88;2.80;;;;;;;;;;5073399;28;20490;-65
2023/03/21 14:36:27;;;;;;;5.22;2.83;;;;;;;;;;5071016;28;20044;-65
2023/03/21 14:39:15;;;;;;;5.53;2.70;;;;;;;;;;5072160;28;20028;-66
2023/03/21 14:41:45;;;;;;;4.95;2.63;;;;;;;;;;5071964;28;20025;-66
2023/03/21 14:44:26;;;;;;;7.53;3.33;;;;;;;;;;5071220;28;20052;-65
2023/03/21 14:47:00;;;;;;;5.15;2.60;;;;;;;;;;5070914;28;20036;-66
2023/03/21 14:49:31;;;;;;;6.82;3.10;;;;;;;;;;5072871;28;20052;-67
2023/03/21 14:52:02;;;;;;;6.18;2.95;;;;;;;;;;5072153;28;20032;-64
2023/03/21 14:54:28;;;;;;;7.03;3.00;;;;;;;;;;5072180;28;20469;-63
2023/03/21 14:56:59;;;;;;;5.72;2.80;;;;;;;;;;5071668;28;20468;-64